Time;durP1;ratioP1;P1;durP2;ratioP2;P2;SDS_P1;SDS_P2;PMS_P1;PMS_P2;Temp;Humidity;BMP_temperature;BMP_pressure;BME280_temperature;BME280_humidity;BME280_pressure;Samples;Min_cycle;Max_cycle;Signal;HPM_P1;HPM_P2
2023/01/14 00:00:24;;;;;;;;;6.33;6.33;;;;;10.32;66.37;101474.00;5056007;28;45360;-76
2023/01/14 00:02:50;;;;;;;;;9.67;6.67;;;;;10.59;66.84;101502.81;5058344;28;45369;-75
2023/01/14 00:05:18;;;;;;;;;9.33;8.00;;;;;10.55;67.07;101492.56;5056326;28;45468;-78
2023/01/14 00:07:43;;;;;;;;;7.00;6.00;;;;;10.56;67.29;101487.13;5056807;28;45813;-76
2023/01/14 00:10:09;;;;;;;;;8.00;6.67;;;;;10.57;67.44;101493.28;5057099;28;45566;-77
2023/01/14 00:12:35;;;;;;;;;9.00;6.67;;;;;10.54;67.22;101473.09;5057115;28;45399;-78
2023/01/14 00:15:01;;;;;;;;;6.00;4.00;;;;;10.43;67.87;101470.50;5072842;28;45260;-78
2023/01/14 00:17:26;;;;;;;;;5.67;5.00;;;;;10.51;68.21;101477.84;5055735;28;47296;-76
2023/01/14 00:19:51;;;;;;;;;4.00;4.00;;;;;8.58;67.94;101155.34;5056980;28;45332;-77
2023/01/14 00:22:17;;;;;;;;;5.67;5.67;;;;;10.19;68.67;101424.59;5072737;28;45521;-76
2023/01/14 00:24:42;;;;;;;;;7.33;5.00;;;;;10.38;68.47;101440.75;5057530;28;45466;-75
2023/01/14 00:27:07;;;;;;;;;5.00;3.00;;;;;10.54;69.47;101459.81;5056896;28;46262;-74
2023/01/14 00:29:34;;;;;;;;;5.33;4.00;;;;;10.55;70.31;101468.63;5056856;28;45937;-77
2023/01/14 00:32:03;;;;;;;;;7.67;4.33;;;;;10.56;71.50;101455.22;5059167;28;45329;-76
2023/01/14 00:34:30;;;;;;;;;5.00;3.00;;;;;10.56;72.09;101459.69;5057775;28;45202;-75
2023/01/14 00:36:56;;;;;;;;;6.67;3.33;;;;;10.54;72.92;101451.00;5056812;28;46117;-78
2023/01/14 00:39:22;;;;;;;;;6.33;5.33;;;;;10.54;73.21;101457.16;5056545;28;45410;-75
2023/01/14 00:41:47;;;;;;;;;3.00;3.00;;;;;10.18;73.29;101380.41;5055733;28;45399;-77
2023/01/14 00:44:13;;;;;;;;;4.33;3.00;;;;;10.39;73.51;101402.59;5055803;28;45295;-76
2023/01/14 00:46:40;;;;;;;;;6.67;4.33;;;;;9.82;73.77;101302.78;5055834;28;47375;-76
2023/01/14 00:49:07;;;;;;;;;8.00;5.67;;;;;10.58;74.80;101439.13;5057045;28;45529;-76
2023/01/14 00:51:33;;;;;;;;;7.00;5.33;;;;;10.34;74.82;101380.88;5057305;28;45468;-78
2023/01/14 00:54:01;;;;;;;;;4.00;4.00;;;;;10.48;75.90;101404.50;5059680;28;45617;-77
2023/01/14 00:56:27;;;;;;;;;4.33;3.67;;;;;9.27;75.39;101193.13;5060101;28;45783;-75
2023/01/14 00:58:52;;;;;;;;;4.33;3.00;;;;;10.62;76.26;101403.34;5075903;28;45655;-76
2023/01/14 01:01:18;;;;;;;;;3.67;3.33;;;;;10.58;76.09;101396.59;5060200;28;45325;-76
2023/01/14 01:03:47;;;;;;;;;4.67;3.67;;;;;10.38;76.33;101371.66;5058751;28;45520;-77
2023/01/14 01:06:14;;;;;;;;;5.67;4.67;;;;;10.34;76.47;101359.59;5058089;28;47184;-76
2023/01/14 01:08:39;;;;;;;;;4.00;1.33;;;;;10.22;76.98;101360.63;5059651;28;45430;-75
2023/01/14 01:11:06;;;;;;;;;5.33;4.00;;;;;10.40;76.63;101358.22;5059970;28;45517;-76
2023/01/14 01:13:31;;;;;;;;;3.00;3.00;;;;;10.30;76.66;101332.44;5059979;28;45422;-76
2023/01/14 01:16:06;;;;;;;;;4.00;4.00;;;;;9.89;76.80;101256.16;5074928;28;47148;-77
2023/01/14 01:18:32;;;;;;;;;6.00;6.00;;;;;10.57;76.99;101357.69;5059249;28;45463;-76
2023/01/14 01:21:24;;;;;;;;;8.67;7.00;;;;;10.58;76.95;101362.00;5059747;28;45409;-76
2023/01/14 01:23:50;;;;;;;;;7.33;5.67;;;;;10.57;77.22;101350.53;5056227;28;45604;-76
2023/01/14 01:26:18;;;;;;;;;4.00;4.00;;;;;9.82;77.17;101214.31;5059439;28;46578;-74
2023/01/14 01:28:48;;;;;;;;;5.67;5.67;;;;;9.70;76.75;101205.53;5058078;28;46426;-74
2023/01/14 01:31:14;;;;;;;;;7.67;5.00;;;;;10.31;77.00;101293.41;5059567;28;45211;-76
2023/01/14 01:33:40;;;;;;;;;4.00;4.00;;;;;8.63;77.01;101052.50;5058361;28;45664;-76
2023/01/14 01:36:18;;;;;;;;;4.67;4.00;;;;;10.65;77.27;101352.56;5059157;28;45371;-76
2023/01/14 01:38:45;;;;;;;;;4.00;4.00;;;;;10.62;77.20;101342.19;5058020;28;45441;-76
2023/01/14 01:41:16;;;;;;;;;6.33;5.00;;;;;10.53;76.94;101330.50;5059393;28;45343;-75
2023/01/14 01:44:28;;;;;;;;;4.33;4.33;;;;;10.65;77.62;101337.47;5059389;28;45356;-77
2023/01/14 01:46:53;;;;;;;;;6.00;5.00;;;;;10.67;78.00;101355.94;5027305;28;48280;-76
2023/01/14 01:49:27;;;;;;;;;3.67;3.67;;;;;10.58;77.91;101333.59;5059614;28;45375;-75
2023/01/14 01:51:58;;;;;;;;;4.33;4.33;;;;;10.69;77.98;101342.50;5058137;28;45438;-76
2023/01/14 01:54:28;;;;;;;;;3.33;2.67;;;;;10.70;78.53;101349.50;5059233;28;45318;-76
2023/01/14 01:56:55;;;;;;;;;5.00;4.00;;;;;10.70;78.47;101344.19;5057451;28;48619;-76
2023/01/14 01:59:26;;;;;;;;;4.33;3.33;;;;;10.24;79.30;101271.00;5058827;28;45423;-76
2023/01/14 02:01:54;;;;;;;;;4.00;4.00;;;;;10.49;79.54;101305.16;5059357;28;45539;-75
2023/01/14 02:04:19;;;;;;;;;3.00;3.00;;;;;10.17;78.90;101249.34;5058498;28;45513;-77
2023/01/14 02:06:45;;;;;;;;;6.33;4.00;;;;;10.63;79.61;101323.44;5060379;28;47662;-75
2023/01/14 02:09:11;;;;;;;;;3.67;3.67;;;;;10.58;79.69;101303.53;5062194;28;45418;-75
2023/01/14 02:11:56;;;;;;;;;5.00;2.33;;;;;10.23;79.39;101240.09;5060210;28;45433;-74
2023/01/14 02:14:24;;;;;;;;;5.00;4.00;;;;;10.77;80.41;101345.34;5061296;28;45450;-77
2023/01/14 02:16:56;;;;;;;;;4.00;4.00;;;;;10.80;80.04;101308.69;5056782;28;48739;-74
2023/01/14 02:19:57;;;;;;;;;4.00;3.00;;;;;10.85;79.99;101303.00;5057131;28;45393;-75
2023/01/14 02:22:55;;;;;;;;;4.67;4.67;;;;;10.87;80.44;101303.72;5058633;28;45288;-75
2023/01/14 02:25:32;;;;;;;;;4.00;3.00;;;;;10.89;80.43;101296.44;5057385;28;45602;-77
2023/01/14 02:28:04;;;;;;;;;3.67;2.33;;;;;10.88;80.40;101286.78;5057096;28;48140;-76
2023/01/14 02:30:39;;;;;;;;;3.33;3.00;;;;;10.78;80.89;101267.25;5058133;28;45308;-77
2023/01/14 02:33:16;;;;;;;;;3.67;3.67;;;;;10.11;80.52;101146.28;5057039;28;45510;-74
2023/01/14 02:35:52;;;;;;;;;3.67;3.33;;;;;10.86;80.94;101286.06;5057631;28;45569;-75
2023/01/14 02:38:33;;;;;;;;;3.67;2.33;;;;;10.07;80.87;101151.00;5074026;28;47875;-75
2023/01/14 02:41:14;;;;;;;;;6.00;3.33;;;;;10.41;81.01;101206.63;5058343;28;45493;-75
2023/01/14 02:44:11;;;;;;;;;6.33;4.00;;;;;10.87;81.37;101283.28;5058176;28;45456;-75
2023/01/14 02:46:52;;;;;;;;;3.67;2.00;;;;;10.73;80.82;101253.50;5056961;28;45416;-74
2023/01/14 02:49:25;;;;;;;;;3.67;2.00;;;;;9.85;81.06;101098.03;5058087;28;45547;-75
2023/01/14 02:51:51;;;;;;;;;2.00;2.00;;;;;10.84;80.48;101248.97;5057839;28;45383;-77
2023/01/14 02:54:17;;;;;;;;;1.67;1.00;;;;;11.01;80.25;101276.72;5056434;28;45528;-76
2023/01/14 02:56:45;;;;;;;;;2.00;2.00;;;;;10.98;80.16;101269.00;5056901;28;45482;-73
2023/01/14 02:59:19;;;;;;;;;3.00;2.00;;;;;11.07;80.02;101268.22;5058030;28;45411;-77
2023/01/14 03:01:58;;;;;;;;;1.67;1.67;;;;;11.08;80.36;101263.75;5057528;28;46569;-73
2023/01/14 03:04:53;;;;;;;;;1.33;0.33;;;;;11.09;79.66;101252.97;5058690;28;45266;-75
2023/01/14 03:07:24;;;;;;;;;1.33;1.00;;;;;11.16;79.62;101253.25;5056977;28;45308;-75
2023/01/14 03:09:58;;;;;;;;;0.00;0.00;;;;;11.18;79.28;101260.13;5057662;28;46078;-76
2023/01/14 03:12:29;;;;;;;;;1.33;0.33;;;;;11.11;78.78;101261.66;5057491;28;45413;-77
2023/01/14 03:15:32;;;;;;;;;0.00;0.00;;;;;11.16;78.72;101247.94;5056431;28;45411;-75
2023/01/14 03:18:20;;;;;;;;;0.33;0.33;;;;;10.84;78.27;101177.16;5056276;28;45212;-75
2023/01/14 03:20:51;;;;;;;;;2.00;2.00;;;;;11.23;77.91;101233.97;5056082;28;47222;-75
2023/01/14 03:23:23;;;;;;;;;2.00;0.33;;;;;11.13;77.31;101226.94;5056249;28;45530;-76
2023/01/14 03:25:51;;;;;;;;;1.33;1.33;;;;;10.95;77.48;101173.53;5057787;28;45300;-75
2023/01/14 03:28:21;;;;;;;;;3.67;1.00;;;;;11.22;77.08;101220.81;5073111;28;45623;-74
2023/01/14 03:30:57;;;;;;;;;2.00;1.00;;;;;11.21;77.14;101198.66;5057350;28;46643;-76
2023/01/14 03:33:29;;;;;;;;;2.67;1.00;;;;;11.18;76.75;101180.28;5057584;28;45347;-76
2023/01/14 03:35:57;;;;;;;;;5.33;1.67;;;;;11.21;76.84;101174.72;5056476;28;45424;-76
2023/01/14 03:38:39;;;;;;;;;3.00;1.00;;;;;11.24;76.51;101163.78;5069716;28;45287;-74
2023/01/14 03:41:08;;;;;;;;;2.67;1.00;;;;;10.85;76.31;101087.56;5075288;27;46607;-76
2023/01/14 03:43:54;;;;;;;;;2.67;1.33;;;;;10.75;76.69;101055.59;5058832;28;46825;-74
2023/01/14 03:46:19;;;;;;;;;3.00;1.00;;;;;11.21;76.60;101134.78;5055592;28;45387;-76
2023/01/14 03:48:44;;;;;;;;;3.67;2.00;;;;;11.17;76.56;101144.00;5057485;28;45526;-75
2023/01/14 03:51:27;;;;;;;;;1.67;1.00;;;;;10.25;76.67;100988.34;5057442;28;46205;-75
2023/01/14 03:54:18;;;;;;;;;1.33;1.33;;;;;11.17;76.66;101112.06;5057486;28;46300;-77
2023/01/14 03:56:52;;;;;;;;;2.00;2.00;;;;;11.13;76.46;101099.19;5055421;28;45437;-76
2023/01/14 03:59:26;;;;;;;;;6.33;2.33;;;;;11.26;76.28;101116.59;5055961;28;45312;-75
2023/01/14 04:01:54;;;;;;;;;2.00;1.33;;;;;11.06;76.84;101104.25;5056983;28;45813;-74
2023/01/14 04:04:22;;;;;;;;;3.00;1.00;;;;;10.61;76.94;101014.31;5056727;28;45308;-76
2023/01/14 04:06:47;;;;;;;;;3.33;3.00;;;;;11.07;76.73;101086.44;5055580;28;45372;-76
2023/01/14 04:09:13;;;;;;;;;5.67;3.33;;;;;11.09;76.66;101077.34;5055556;28;45545;-76
2023/01/14 04:11:39;;;;;;;;;2.33;1.33;;;;;10.80;76.73;101028.59;5056652;28;45494;-75
2023/01/14 04:16:49;;;;;;;;;1.00;1.00;;;;;11.09;76.46;101065.88;5063243;28;45335;-76
2023/01/14 04:19:15;;;;;;;;;2.67;2.00;;;;;11.19;76.92;101059.56;5075876;28;45287;-74
2023/01/14 04:21:40;;;;;;;;;5.00;3.67;;;;;11.18;76.77;101057.88;5076670;28;46011;-76
2023/01/14 04:24:06;;;;;;;;;4.00;2.33;;;;;11.19;76.69;101067.53;5077317;28;45276;-75
2023/01/14 04:26:31;;;;;;;;;2.00;2.00;;;;;11.13;76.54;101044.16;5077080;28;45260;-73
2023/01/14 04:28:57;;;;;;;;;6.00;2.00;;;;;11.03;76.53;101019.38;5080095;28;45572;-74
2023/01/14 04:31:23;;;;;;;;;5.00;3.00;;;;;10.96;76.33;101005.78;5080291;28;46406;-75
2023/01/14 04:33:48;;;;;;;;;6.33;3.00;;;;;10.74;76.75;100966.16;5080518;28;45580;-75
2023/01/14 04:36:14;;;;;;;;;5.67;4.00;;;;;10.47;76.53;100913.69;5080615;28;45220;-74
2023/01/14 04:38:39;;;;;;;;;3.00;2.00;;;;;10.55;76.79;100932.44;5080665;28;45314;-74
2023/01/14 04:41:05;;;;;;;;;2.00;2.00;;;;;11.27;76.11;101040.25;5062085;28;47346;-75
2023/01/14 04:43:30;;;;;;;;;8.67;5.00;;;;;11.26;76.97;101043.88;5061995;28;45300;-73
2023/01/14 04:45:56;;;;;;;;;3.67;3.00;;;;;11.19;76.35;101038.25;5080511;28;45339;-74
2023/01/14 04:48:24;;;;;;;;;7.33;4.00;;;;;9.88;76.16;100803.00;5080479;28;45653;-75
2023/01/14 04:50:50;;;;;;;;;5.67;4.67;;;;;11.23;76.33;101025.53;5079983;28;45336;-75
2023/01/14 04:53:21;;;;;;;;;5.67;3.33;;;;;10.90;76.10;100966.44;5080375;28;45519;-75
2023/01/14 04:55:47;;;;;;;;;4.67;3.00;;;;;10.89;76.27;100943.50;5079924;28;45467;-75
2023/01/14 04:58:15;;;;;;;;;4.33;1.00;;;;;9.26;75.65;100674.13;5062210;28;45346;-76
2023/01/14 05:00:41;;;;;;;;;6.00;2.33;;;;;11.17;76.09;100989.66;5079834;28;45733;-75
2023/01/14 05:03:09;;;;;;;;;5.67;4.00;;;;;11.17;76.37;100986.16;5080071;28;45347;-76
2023/01/14 05:05:35;;;;;;;;;5.33;2.33;;;;;11.24;76.28;100993.47;5063684;28;45411;-75
2023/01/14 05:08:00;;;;;;;;;4.00;1.67;;;;;10.44;75.90;100839.53;5061846;28;45493;-73
2023/01/14 05:10:26;;;;;;;;;6.67;4.33;;;;;10.86;76.66;100933.13;5079842;28;45809;-73
2023/01/14 05:12:58;;;;;;;;;4.33;3.33;;;;;11.05;76.31;100961.53;5080043;28;45265;-74
2023/01/14 05:15:33;;;;;;;;;3.00;2.00;;;;;10.60;75.54;100870.84;5080571;28;45292;-74
2023/01/14 05:17:58;;;;;;;;;2.00;2.00;;;;;11.07;75.50;100964.91;5082719;28;45385;-76
2023/01/14 05:20:25;;;;;;;;;4.00;4.00;;;;;11.18;75.39;100996.66;5081251;28;45323;-73
2023/01/14 05:22:51;;;;;;;;;2.00;2.00;;;;;11.13;75.56;100985.63;5079883;28;45472;-74
2023/01/14 05:25:17;;;;;;;;;3.00;2.00;;;;;10.82;75.57;100925.59;5079842;28;45324;-76
2023/01/14 05:27:42;;;;;;;;;5.67;3.00;;;;;10.76;75.34;100929.63;5080004;28;45312;-73
2023/01/14 05:30:08;;;;;;;;;3.00;3.00;;;;;10.93;75.67;100944.03;5078005;28;52070;-75
2023/01/14 05:32:34;;;;;;;;;5.00;2.00;;;;;10.93;75.67;100942.22;5061734;28;45504;-74
2023/01/14 05:34:59;;;;;;;;;3.00;2.00;;;;;10.96;75.18;100938.44;5062924;28;45405;-73
2023/01/14 05:37:24;;;;;;;;;3.00;2.00;;;;;11.10;75.59;100961.13;5080024;28;45339;-75
2023/01/14 05:39:49;;;;;;;;;4.00;2.33;;;;;10.57;75.48;100879.97;5078271;28;47394;-74
2023/01/14 05:47:42;;;;;;;;;2.33;1.33;;;;;10.56;75.08;100843.72;5079729;28;45486;-74
2023/01/14 05:50:11;;;;;;;;;2.00;2.00;;;;;10.84;74.63;100865.13;5079019;28;45428;-77
2023/01/14 05:52:37;;;;;;;;;8.33;5.00;;;;;11.08;74.80;100896.56;5060988;28;45268;-74
2023/01/14 05:55:03;;;;;;;;;2.00;2.00;;;;;10.34;74.94;100817.44;5077865;28;45186;-76
2023/01/14 05:57:28;;;;;;;;;3.00;2.50;;;;;10.69;74.84;100854.06;5079213;28;45217;-75
2023/01/14 05:59:54;;;;;;;;;7.33;4.00;;;;;10.81;74.76;100870.69;5079091;28;46754;-75
2023/01/14 06:07:47;;;;;;;;;1.00;1.00;;;;;10.25;74.29;100755.34;5079190;28;45311;-75
2023/01/14 06:10:12;;;;;;;;;1.33;1.33;;;;;10.47;73.99;100783.44;5078662;28;45775;-73
2023/01/14 06:15:21;;;;;;;;;1.67;1.00;;;;;11.07;74.24;100877.09;5079328;28;45556;-75
2023/01/14 06:17:56;;;;;;;;;2.33;2.00;;;;;10.93;73.83;100850.94;5060650;28;45625;-75
2023/01/14 06:20:22;;;;;;;;;6.67;3.00;;;;;11.07;73.66;100873.59;5078769;28;45968;-75
2023/01/14 06:22:47;;;;;;;;;2.33;1.33;;;;;10.49;73.72;100770.00;5060506;28;45278;-74
2023/01/14 06:25:13;;;;;;;;;2.00;2.00;;;;;11.05;73.51;100844.47;5078994;28;45649;-75
2023/01/14 06:27:38;;;;;;;;;2.00;2.00;;;;;11.15;73.51;100855.09;5078872;28;45379;-75
2023/01/14 06:30:04;;;;;;;;;5.00;3.00;;;;;11.10;73.41;100860.84;5078631;28;46450;-76
2023/01/14 06:32:30;;;;;;;;;3.00;0.67;;;;;10.83;74.06;100808.44;5078449;28;45520;-77
2023/01/14 06:34:55;;;;;;;;;1.67;1.67;;;;;10.56;74.20;100789.72;5078531;28;45453;-75
2023/01/14 06:37:20;;;;;;;;;0.00;0.00;;;;;10.96;74.33;100834.69;5060806;28;45537;-74
2023/01/14 06:39:45;;;;;;;;;3.00;3.00;;;;;10.02;73.88;100688.38;5059921;28;53612;-73
2023/01/14 06:42:11;;;;;;;;;2.33;1.00;;;;;10.88;74.35;100813.31;5060250;28;45320;-74
2023/01/14 06:44:36;;;;;;;;;4.67;1.00;;;;;11.03;73.81;100835.81;5078382;28;45486;-74
2023/01/14 06:47:01;;;;;;;;;2.33;1.33;;;;;11.09;74.53;100831.72;5078759;28;45441;-73
2023/01/14 06:49:27;;;;;;;;;4.00;3.00;;;;;10.75;74.12;100773.72;5059478;28;60786;-76
2023/01/14 06:51:52;;;;;;;;;2.00;2.00;;;;;10.84;74.31;100782.66;5077697;28;45302;-73
2023/01/14 06:54:17;;;;;;;;;2.67;2.00;;;;;10.76;73.67;100767.41;5078471;28;45365;-75
2023/01/14 06:56:43;;;;;;;;;2.33;2.33;;;;;11.11;74.12;100825.28;5078672;28;45479;-76
2023/01/14 06:59:08;;;;;;;;;2.00;2.00;;;;;11.01;74.18;100800.50;5060000;28;47877;-76
2023/01/14 07:01:34;;;;;;;;;5.00;1.67;;;;;10.82;73.83;100768.69;5078094;28;45591;-75
2023/01/14 07:03:59;;;;;;;;;4.33;2.33;;;;;10.86;73.98;100772.72;5060196;28;45347;-73
2023/01/14 07:06:24;;;;;;;;;5.00;2.67;;;;;10.34;73.91;100671.28;5078443;28;45360;-75
2023/01/14 07:08:49;;;;;;;;;2.00;2.00;;;;;11.09;74.58;100803.28;5076615;28;47723;-76
2023/01/14 07:11:15;;;;;;;;;2.67;2.67;;;;;10.79;74.82;100739.69;5078598;28;45298;-75
2023/01/14 07:13:40;;;;;;;;;2.00;2.00;;;;;10.91;74.75;100754.50;5061400;28;45559;-76
2023/01/14 07:16:06;;;;;;;;;2.00;2.00;;;;;10.89;74.77;100762.63;5080132;28;45302;-74
2023/01/14 07:18:31;;;;;;;;;2.33;1.67;;;;;11.09;74.86;100786.50;5078065;28;46972;-76
2023/01/14 07:20:58;;;;;;;;;5.67;2.00;;;;;11.11;74.54;100756.09;5077991;28;45454;-76
2023/01/14 07:23:25;;;;;;;;;2.00;1.67;;;;;11.11;74.68;100780.03;5078399;28;45309;-74
2023/01/14 07:25:55;;;;;;;;;3.33;2.33;;;;;11.01;74.84;100773.91;5079678;28;45530;-74
2023/01/14 07:28:21;;;;;;;;;1.67;1.67;;;;;10.79;75.04;100721.91;5080639;28;46140;-75
2023/01/14 07:30:48;;;;;;;;;6.00;3.33;;;;;10.77;76.11;100712.41;5079163;28;45249;-76
2023/01/14 07:33:13;;;;;;;;;4.33;3.00;;;;;10.98;76.01;100763.56;5059659;28;45543;-76
2023/01/14 07:35:39;;;;;;;;;4.00;1.33;;;;;10.99;76.70;100738.63;5059624;28;45242;-74
2023/01/14 07:38:04;;;;;;;;;1.67;1.33;;;;;10.60;76.61;100680.28;5059529;28;48833;-75
2023/01/14 07:40:29;;;;;;;;;1.33;1.33;;;;;10.96;77.19;100741.59;5076272;28;45491;-76
2023/01/14 07:42:57;;;;;;;;;3.67;2.67;;;;;10.96;76.96;100741.59;5072374;28;45789;-75
2023/01/14 07:45:41;;;;;;;;;4.33;2.00;;;;;10.94;76.89;100731.09;5058853;28;45601;-75
2023/01/14 07:48:07;;;;;;;;;7.67;2.67;;;;;10.91;76.40;100728.72;5059365;28;45415;-75
2023/01/14 07:50:32;;;;;;;;;3.33;2.00;;;;;10.91;76.26;100722.56;5077429;28;45303;-77
2023/01/14 07:52:59;;;;;;;;;7.33;1.33;;;;;10.95;76.40;100735.44;5064433;28;45312;-76
2023/01/14 07:55:26;;;;;;;;;1.33;1.33;;;;;10.91;76.78;100715.44;5061882;28;45488;-75
2023/01/14 07:57:51;;;;;;;;;4.00;3.00;;;;;10.20;76.22;100586.66;5058284;28;46193;-76
2023/01/14 08:00:18;;;;;;;;;3.67;1.00;;;;;10.56;76.45;100651.47;5057951;28;45242;-76
2023/01/14 08:02:44;;;;;;;;;3.67;2.00;;;;;10.98;76.43;100721.81;5069291;28;45914;-75
2023/01/14 08:05:09;;;;;;;;;2.00;2.00;;;;;10.52;77.12;100640.31;5083991;28;45243;-76
2023/01/14 08:07:35;;;;;;;;;4.00;1.25;;;;;10.95;77.04;100710.66;5069024;28;48447;-76
2023/01/14 08:10:00;;;;;;;;;2.00;1.00;;;;;10.77;76.89;100664.53;5066410;28;45581;-76
2023/01/14 08:12:28;;;;;;;;;2.67;1.00;;;;;10.30;77.37;100576.91;5062640;28;45320;-76
2023/01/14 08:14:53;;;;;;;;;4.67;2.00;;;;;11.01;77.62;100685.28;5063209;28;45504;-76
2023/01/14 08:17:19;;;;;;;;;2.33;2.33;;;;;10.58;77.42;100607.81;5084970;27;48073;-73
2023/01/14 08:19:44;;;;;;;;;2.00;2.00;;;;;10.71;78.69;100646.53;5080829;27;45252;-76
2023/01/14 08:22:12;;;;;;;;;2.00;1.00;;;;;10.52;78.68;100605.75;5081033;28;45883;-75
2023/01/14 08:24:39;;;;;;;;;2.00;1.00;;;;;10.99;78.51;100682.75;5081249;27;45232;-77
2023/01/14 08:27:04;;;;;;;;;3.00;3.00;;;;;10.75;78.95;100634.59;5081829;27;46389;-75
2023/01/14 08:29:29;;;;;;;;;2.67;2.00;;;;;10.96;79.26;100680.41;5084029;27;45312;-75
2023/01/14 08:31:55;;;;;;;;;3.00;2.00;;;;;10.45;79.23;100585.22;5081207;27;45146;-77
2023/01/14 08:34:25;;;;;;;;;1.00;1.00;;;;;10.15;79.12;100541.13;5076137;28;45601;-77
2023/01/14 08:36:50;;;;;;;;;4.00;2.00;;;;;10.77;79.60;100625.50;5078132;28;47861;-78
2023/01/14 08:39:16;;;;;;;;;1.33;1.00;;;;;10.84;79.73;100650.53;5078904;28;46438;-74
2023/01/14 08:41:42;;;;;;;;;1.00;1.00;;;;;10.33;79.95;100540.22;5080843;27;45481;-74
2023/01/14 08:44:08;;;;;;;;;4.67;2.67;;;;;10.78;79.53;100626.31;5072400;27;45377;-76
2023/01/14 08:46:34;;;;;;;;;1.00;1.00;;;;;10.68;79.64;100601.63;5081570;28;46177;-74
2023/01/14 08:48:59;;;;;;;;;2.00;2.00;;;;;10.97;79.37;100635.03;5081414;27;45452;-72
2023/01/14 08:51:28;;;;;;;;;2.67;2.33;;;;;11.14;79.00;100656.50;5059794;28;45424;-74
2023/01/14 08:54:01;;;;;;;;;1.00;1.00;;;;;11.11;79.53;100651.47;5059845;28;45490;-73
2023/01/14 08:56:27;;;;;;;;;5.67;2.00;;;;;10.73;80.63;100615.31;5076024;28;48465;-74
2023/01/14 08:58:53;;;;;;;;;2.00;1.00;;;;;11.10;80.51;100647.97;5059698;28;45247;-75
2023/01/14 09:01:18;;;;;;;;;6.00;3.00;;;;;11.11;80.34;100639.00;5058457;28;45223;-72
2023/01/14 09:03:45;;;;;;;;;2.67;1.33;;;;;11.12;79.62;100638.03;5058553;28;45547;-75
2023/01/14 09:06:13;;;;;;;;;6.67;3.00;;;;;10.64;79.95;100575.34;5059157;28;46558;-75
2023/01/14 09:17:15;;;;;;;;;3.00;2.00;;;;;10.57;79.20;100499.81;5059471;28;45304;-73
2023/01/14 09:19:49;;;;;;;;;3.00;1.67;;;;;11.26;79.51;100581.63;5060841;28;45558;-76
2023/01/14 09:22:18;;;;;;;;;3.33;3.00;;;;;11.23;80.51;100605.88;5059806;28;45543;-76
2023/01/14 09:24:44;;;;;;;;;7.00;3.00;;;;;11.12;80.48;100576.84;5058112;28;45614;-76
2023/01/14 09:27:10;;;;;;;;;3.00;1.00;;;;;10.60;80.63;100499.50;5059308;28;45415;-78
2023/01/14 09:29:35;;;;;;;;;3.33;3.00;;;;;10.93;80.75;100545.06;5057893;28;45206;-76
2023/01/14 09:32:01;;;;;;;;;3.33;2.00;;;;;11.37;80.43;100604.50;5059168;28;45623;-76
2023/01/14 09:34:26;;;;;;;;;3.00;1.33;;;;;11.14;80.89;100563.38;5059649;28;45154;-77
2023/01/14 09:36:55;;;;;;;;;3.33;2.00;;;;;11.42;81.14;100609.41;5059611;28;46391;-77
2023/01/14 09:39:21;;;;;;;;;1.00;1.00;;;;;11.38;81.69;100608.00;5069659;27;45534;-77
2023/01/14 09:41:58;;;;;;;;;1.67;0.67;;;;;11.38;81.69;100605.34;5081147;27;45442;-76
2023/01/14 09:44:24;;;;;;;;;4.00;1.00;;;;;11.32;81.75;100592.66;5073343;28;45584;-78
2023/01/14 09:46:51;;;;;;;;;3.00;2.00;;;;;11.09;81.43;100555.84;5092643;27;47879;-75
2023/01/14 09:49:21;;;;;;;;;2.00;1.00;;;;;11.39;81.67;100594.53;5074980;27;45517;-75
2023/01/14 09:51:58;;;;;;;;;1.33;1.00;;;;;11.44;81.49;100586.13;5068785;28;45465;-74
2023/01/14 09:54:41;;;;;;;;;4.00;3.00;;;;;11.45;81.13;100601.09;5073083;28;45291;-75
2023/01/14 09:57:19;;;;;;;;;1.00;1.00;;;;;11.30;80.93;100544.06;5081174;27;45454;-75
2023/01/14 10:00:25;;;;;;;;;5.33;2.00;;;;;11.51;80.99;100584.50;5072753;27;45550;-74
2023/01/14 10:03:06;;;;;;;;;1.50;1.50;;;;;11.56;80.31;100582.22;5056587;28;45399;-75
2023/01/14 10:05:33;;;;;;;;;3.33;1.00;;;;;10.75;80.16;100443.97;5079456;27;45550;-75
2023/01/14 10:08:13;;;;;;;;;3.33;1.33;;;;;11.62;80.62;100608.25;5068894;27;45964;-76
2023/01/14 10:10:41;;;;;;;;;5.00;2.33;;;;;11.47;80.50;100553.84;5076570;28;45294;-76
2023/01/14 10:13:18;;;;;;;;;4.00;3.00;;;;;11.27;80.03;100499.97;5073894;27;45631;-75
2023/01/14 10:15:55;;;;;;;;;2.67;2.67;;;;;11.71;80.56;100554.03;5068335;28;45479;-76
2023/01/14 10:18:35;;;;;;;;;2.00;1.00;;;;;11.70;79.75;100563.00;5049961;28;46477;-76
2023/01/14 10:21:05;;;;;;;;;5.67;3.67;;;;;11.58;79.70;100533.13;5039585;28;45501;-74
2023/01/14 10:23:40;;;;;;;;;6.00;2.00;;;;;11.32;79.64;100492.34;5031975;28;45368;-75
2023/01/14 10:26:17;;;;;;;;;3.00;1.67;;;;;11.72;79.61;100531.72;5058057;28;45395;-74
2023/01/14 10:28:45;;;;;;;;;1.00;1.00;;;;;10.82;79.83;100369.78;5045208;28;46012;-77
2023/01/14 10:31:18;;;;;;;;;2.00;2.00;;;;;11.77;80.11;100516.13;5042994;28;45458;-75
2023/01/14 10:33:48;;;;;;;;;1.00;1.00;;;;;11.81;79.43;100522.00;5057062;28;45643;-75
2023/01/14 10:36:18;;;;;;;;;2.00;2.00;;;;;11.40;79.28;100451.63;5035720;28;45462;-79
2023/01/14 10:38:45;;;;;;;;;1.00;1.00;;;;;10.98;79.65;100376.03;5038172;28;45452;-75
2023/01/14 10:41:12;;;;;;;;;1.00;1.00;;;;;10.98;79.41;100391.97;5044065;28;45282;-73
2023/01/14 10:43:44;;;;;;;;;0.33;0.00;;;;;11.81;80.25;100528.19;5042808;28;45238;-75
2023/01/14 10:46:18;;;;;;;;;2.33;2.33;;;;;11.31;80.38;100432.13;5042379;28;45493;-78
2023/01/14 10:48:55;;;;;;;;;1.00;1.00;;;;;11.03;80.57;100391.53;5035674;28;45759;-77
2023/01/14 10:51:36;;;;;;;;;2.67;1.33;;;;;11.27;80.77;100428.94;5020280;28;45519;-77
2023/01/14 10:54:19;;;;;;;;;2.00;2.00;;;;;11.55;81.21;100452.75;5044524;28;45715;-76
2023/01/14 10:57:15;;;;;;;;;3.00;2.00;;;;;11.72;80.82;100477.63;5039316;28;45479;-75
2023/01/14 10:59:50;;;;;;;;;2.00;2.00;;;;;11.71;80.27;100484.78;5025441;28;45580;-74
2023/01/14 11:02:47;;;;;;;;;3.50;3.25;;;;;11.35;80.44;100400.72;5029762;28;45602;-73
2023/01/14 11:05:26;;;;;;;;;2.00;2.00;;;;;11.94;80.08;100495.75;5036543;28;45392;-73
2023/01/14 11:07:54;;;;;;;;;2.00;2.00;;;;;11.55;80.35;100418.13;5051304;28;45420;-75
2023/01/14 11:10:23;;;;;;;;;6.00;3.00;;;;;11.99;80.18;100460.66;5035257;28;47407;-74
2023/01/14 11:12:51;;;;;;;;;2.00;2.00;;;;;11.31;80.48;100365.59;5019566;28;45921;-72
2023/01/14 11:15:39;;;;;;;;;4.33;2.33;;;;;12.00;80.62;100464.97;5039241;28;45405;-74
2023/01/14 11:18:28;;;;;;;;;3.00;3.00;;;;;11.99;80.61;100455.31;5053541;28;45466;-72
2023/01/14 11:21:15;;;;;;;;;3.00;3.00;;;;;11.65;80.79;100389.56;5092215;27;47591;-73
2023/01/14 11:23:59;;;;;;;;;3.00;3.00;;;;;10.76;80.83;100232.09;5077763;27;45372;-71
2023/01/14 11:26:29;;;;;;;;;4.33;4.00;;;;;12.00;80.53;100435.66;5077885;27;45345;-71
2023/01/14 11:29:21;;;;;;;;;2.00;2.00;;;;;11.99;80.86;100412.69;5077973;28;45450;-73
2023/01/14 11:31:50;;;;;;;;;2.67;2.67;;;;;11.51;80.58;100336.91;5075011;28;46152;-71
2023/01/14 11:34:28;;;;;;;;;3.33;2.67;;;;;11.90;80.98;100392.34;5078098;27;45350;-72
2023/01/14 11:37:09;;;;;;;;;4.33;4.00;;;;;11.98;80.57;100368.41;5077900;27;45355;-73
2023/01/14 11:39:35;;;;;;;;;2.00;2.00;;;;;11.99;81.18;100397.53;5078862;27;45504;-73
2023/01/14 11:42:20;;;;;;;;;2.33;2.33;;;;;11.81;81.02;100368.38;5077739;27;45673;-72
2023/01/14 11:45:18;;;;;;;;;3.00;3.00;;;;;12.02;80.79;100383.91;5077548;27;45510;-74
2023/01/14 11:47:52;;;;;;;;;5.33;2.67;;;;;11.47;80.76;100303.63;5077591;27;45442;-72
2023/01/14 11:50:35;;;;;;;;;3.00;3.00;;;;;11.74;80.85;100313.19;5093502;27;45514;-72
2023/01/14 11:53:15;;;;;;;;;2.67;2.67;;;;;12.09;81.06;100370.78;5077908;27;45861;-72
2023/01/14 11:55:41;;;;;;;;;3.00;3.00;;;;;11.96;80.88;100339.25;5078350;27;45307;-74
2023/01/14 11:58:25;;;;;;;;;3.67;3.33;;;;;12.08;81.28;100348.63;5079990;27;45452;-73
2023/01/14 12:01:03;;;;;;;;;3.33;2.67;;;;;12.08;81.37;100353.13;5079355;27;45647;-72
2023/01/14 12:03:44;;;;;;;;;2.00;2.00;;;;;12.10;81.35;100351.13;5077589;28;46443;-72
2023/01/14 12:06:22;;;;;;;;;2.00;2.00;;;;;11.23;81.14;100177.47;5077413;27;45263;-74